KYKM/YKM METAR and TAF weather

Enter ICAO airport designator
Station Type Date Time Source
KYKM METAR 2021/09/23 18:53 UTC NOAA

KYKM 231853Z 15005KT 10SM CLR 21/10 A3022 RMK AO2 SLP232 T02060100


Station Type Date Time Source
KYKM Decoded METAR 2021/09/23 18:53 UTC NOAA

YAKIMA AIR TERMINAL, WA, United States (KYKM) 46-34N 120-32W 324M
Sep 23, 2021 - 02:53 PM EDT / 2021.09.23 1853 UTC
Wind: from the SSE (150 degrees) at 6 MPH (5 KT):0
Visibility: 10 mile(s):0
Sky conditions: clear
Temperature: 69.1 F (20.6 C)
Dew Point: 50.0 F (10.0 C)
Relative Humidity: 50%
Pressure (altimeter): 30.22 in. Hg (1023 hPa)
ob: KYKM 231853Z 15005KT 10SM CLR 21/10 A3022 RMK AO2 SLP232 T02060100
cycle: 19

Station Type Date Time Source
KYKM TAF 2021/09/23 18:22 UTC NOAA

TAF KYKM 231720Z 2318/2418 VRB03KT P6SM FEW250
FM240500 29005KT P6SM SKC
FM241200 26006KT P6SM SKC

Example: see airport list